Time;durP1;ratioP1;P1;durP2;ratioP2;P2;SDS_P1;SDS_P2;PMS_P1;PMS_P2;Temp;Humidity;BMP_temperature;BMP_pressure;BME280_temperature;BME280_humidity;BME280_pressure;Samples;Min_cycle;Max_cycle;Signal;HPM_P1;HPM_P2
2023/07/19 00:02:24;;;;;;;6.70;5.97;;;;;;;19.44;100.00;156361.31;4905794;29;20476;-82
2023/07/19 00:05:11;;;;;;;9.90;6.90;;;;;;;19.39;100.00;156346.97;4894082;29;20793;-82
2023/07/19 00:07:56;;;;;;;8.37;6.70;;;;;;;19.38;100.00;156345.66;4911461;29;20827;-83
2023/07/19 00:10:41;;;;;;;6.90;6.20;;;;;;;19.35;100.00;156336.50;4902605;29;20453;-83
2023/07/19 00:13:27;;;;;;;6.60;5.90;;;;;;;19.32;100.00;156330.00;4910581;29;20987;-83
2023/07/19 00:16:12;;;;;;;8.20;6.73;;;;;;;19.30;100.00;156324.75;4901810;29;20537;-82
2023/07/19 00:18:57;;;;;;;7.47;6.63;;;;;;;19.30;100.00;156323.47;4911354;29;20464;-83
2023/07/19 00:21:44;;;;;;;6.70;6.10;;;;;;;19.35;100.00;156337.78;4904292;29;20504;-82
2023/07/19 00:24:30;;;;;;;6.90;6.20;;;;;;;19.35;100.00;156337.78;4912236;29;20433;-82
2023/07/19 00:27:15;;;;;;;7.90;6.47;;;;;;;19.38;100.00;156345.66;4908916;29;20991;-82
2023/07/19 00:30:00;;;;;;;6.90;6.00;;;;;;;19.46;100.00;156363.94;4897237;29;20936;-82
2023/07/19 00:32:48;;;;;;;9.17;6.17;;;;;;;19.49;100.00;156371.72;4912868;29;20481;-83
2023/07/19 00:35:33;;;;;;;11.30;6.40;;;;;;;19.48;100.00;156370.44;4914911;29;20476;-82
2023/07/19 00:38:21;;;;;;;6.40;5.80;;;;;;;19.46;100.00;156363.94;4895413;29;21112;-82
2023/07/19 00:41:06;;;;;;;7.47;6.10;;;;;;;19.38;100.00;156345.66;4906459;29;20465;-82
2023/07/19 00:43:51;;;;;;;10.40;6.30;;;;;;;19.36;100.00;156340.41;4913704;29;20441;-82
2023/07/19 00:46:36;;;;;;;7.00;6.30;;;;;;;19.38;100.00;156344.34;4888662;29;20956;-83
2023/07/19 00:49:22;;;;;;;6.70;6.03;;;;;;;19.34;100.00;156333.88;4900363;29;20448;-82
2023/07/19 00:52:08;;;;;;;7.70;6.10;;;;;;;19.35;100.00;156337.78;4912675;29;20533;-82
2023/07/19 00:54:56;;;;;;;7.40;6.30;;;;;;;19.33;100.00;156332.56;4912901;29;20441;-82
2023/07/19 00:57:41;;;;;;;7.10;6.50;;;;;;;19.40;100.00;156349.59;4906358;29;20610;-82
2023/07/19 01:00:27;;;;;;;6.93;5.90;;;;;;;19.38;100.00;156345.66;4915519;29;20452;-82
2023/07/19 01:03:12;;;;;;;7.10;6.40;;;;;;;19.37;100.00;156341.72;4910109;29;20440;-82
2023/07/19 01:06:00;;;;;;;8.83;6.63;;;;;;;19.31;100.00;156327.38;4910369;29;20465;-82
2023/07/19 01:08:46;;;;;;;8.20;6.13;;;;;;;19.25;100.00;156310.41;4910682;29;21001;-82
2023/07/19 01:11:32;;;;;;;7.33;6.27;;;;;;;19.25;100.00;156311.72;4913558;29;20441;-82
2023/07/19 01:14:18;;;;;;;6.67;5.73;;;;;;;19.25;100.00;156310.41;4909522;29;20448;-82
2023/07/19 01:17:03;;;;;;;7.40;6.30;;;;;;;19.19;100.00;156296.13;4909188;29;20459;-82
2023/07/19 01:19:49;;;;;;;8.63;6.40;;;;;;;19.15;100.00;156285.66;4913040;29;20432;-82
2023/07/19 01:22:36;;;;;;;7.10;6.40;;;;;;;19.13;100.00;156280.47;4902568;29;20464;-82
2023/07/19 01:25:22;;;;;;;7.20;6.50;;;;;;;19.19;100.00;156296.13;4906066;29;20450;-82
2023/07/19 01:28:07;;;;;;;6.80;6.10;;;;;;;19.19;100.00;156296.13;4914032;29;20590;-82
2023/07/19 01:30:53;;;;;;;7.27;5.80;;;;;;;19.21;100.00;156300.00;4913158;29;20452;-82
2023/07/19 01:33:38;;;;;;;7.40;6.40;;;;;;;19.23;100.00;156306.53;4900321;29;20586;-82
2023/07/19 01:36:25;;;;;;;7.40;5.83;;;;;;;19.28;100.00;156319.53;4913267;29;20617;-82
2023/07/19 01:39:12;;;;;;;6.80;5.73;;;;;;;19.29;100.00;156322.16;4912958;29;20468;-82
2023/07/19 01:41:58;;;;;;;7.70;5.67;;;;;;;19.29;100.00;156322.16;4905405;29;20512;-82
2023/07/19 01:44:43;;;;;;;5.90;5.30;;;;;;;19.28;100.00;156318.22;4906329;29;20864;-82
2023/07/19 01:47:29;;;;;;;8.03;5.37;;;;;;;19.26;100.00;156314.34;4908324;29;20585;-82
2023/07/19 01:50:15;;;;;;;7.13;4.83;;;;;;;19.22;100.00;156303.88;4911998;29;20578;-83
2023/07/19 01:53:01;;;;;;;6.90;5.50;;;;;;;19.22;100.00;156302.63;4909370;29;20448;-82
2023/07/19 01:55:47;;;;;;;6.27;5.67;;;;;;;19.19;100.00;156296.13;4911797;29;20822;-82
2023/07/19 01:58:32;;;;;;;5.87;5.30;;;;;;;19.13;100.00;156280.47;4903931;29;20552;-82
2023/07/19 02:01:18;;;;;;;6.50;5.10;;;;;;;19.10;100.00;156272.63;4895793;29;20532;-82
2023/07/19 02:04:03;;;;;;;6.00;4.63;;;;;;;19.09;100.00;156270.00;4923190;29;20440;-82
2023/07/19 02:06:49;;;;;;;6.37;5.70;;;;;;;19.08;100.00;156267.44;4909611;29;20945;-82
2023/07/19 02:09:34;;;;;;;8.30;5.70;;;;;;;19.02;100.00;156251.78;4913279;29;20451;-82
2023/07/19 02:12:20;;;;;;;6.27;5.67;;;;;;;18.96;100.00;156236.13;4905645;29;20964;-82
2023/07/19 02:15:07;;;;;;;6.47;5.10;;;;;;;18.92;100.00;156225.72;4896977;29;20455;-82
2023/07/19 02:17:54;;;;;;;8.43;5.80;;;;;;;18.91;100.00;156223.09;4912272;29;20468;-82
2023/07/19 02:20:44;;;;;;;8.57;5.93;;;;;;;18.85;100.00;156208.78;4913504;29;20539;-82
2023/07/19 02:23:30;;;;;;;6.10;5.50;;;;;;;18.80;100.00;156194.44;4894126;29;20500;-82
2023/07/19 02:26:15;;;;;;;7.23;5.93;;;;;;;18.78;100.00;156189.22;4907798;29;20462;-82
2023/07/19 02:29:02;;;;;;;6.60;5.90;;;;;;;18.74;100.00;156180.09;4905523;29;20432;-82
2023/07/19 02:31:47;;;;;;;7.53;5.90;;;;;;;18.73;100.00;156176.22;4889763;29;20469;-82
2023/07/19 02:34:33;;;;;;;6.63;5.97;;;;;;;18.69;100.00;156165.81;4903101;29;20449;-82
2023/07/19 02:37:18;;;;;;;11.73;6.23;;;;;;;18.71;100.00;156172.31;4911977;29;20905;-82
2023/07/19 02:40:04;;;;;;;7.00;6.30;;;;;;;18.72;100.00;156173.59;4909256;29;21068;-82
2023/07/19 02:42:51;;;;;;;9.33;6.97;;;;;;;18.68;100.00;156164.50;4906363;29;20609;-82
2023/07/19 02:45:37;;;;;;;9.23;5.60;;;;;;;18.59;100.00;156139.72;4907978;29;20452;-81
2023/07/19 02:48:23;;;;;;;7.03;6.33;;;;;;;18.53;100.00;156124.13;4893531;29;20485;-82
2023/07/19 02:51:10;;;;;;;6.33;5.70;;;;;;;18.46;100.00;156107.09;4903856;29;20469;-82
2023/07/19 02:53:56;;;;;;;7.17;6.47;;;;;;;18.44;100.00;156100.59;4911374;29;20962;-83
2023/07/19 02:56:41;;;;;;;5.77;5.27;;;;;;;18.42;100.00;156095.41;4911829;29;20456;-83
2023/07/19 02:59:26;;;;;;;6.13;5.53;;;;;;;18.39;100.00;156087.59;4890093;29;20469;-83
2023/07/19 03:02:13;;;;;;;6.33;5.53;;;;;;;18.37;100.00;156083.69;4902556;29;20444;-82
2023/07/19 03:04:59;;;;;;;6.57;5.67;;;;;;;18.40;100.00;156090.22;4911532;29;20629;-82
2023/07/19 03:07:45;;;;;;;7.07;6.23;;;;;;;18.40;100.00;156090.22;4908855;29;20621;-82
2023/07/19 03:10:30;;;;;;;7.93;7.00;;;;;;;18.37;100.00;156082.38;4899069;29;20522;-82
2023/07/19 03:13:15;;;;;;;8.73;6.30;;;;;;;18.34;100.00;156075.88;4910093;29;20469;-82
2023/07/19 03:16:01;;;;;;;6.63;5.50;;;;;;;18.31;100.00;156068.06;4912473;29;21018;-82
2023/07/19 03:18:47;;;;;;;7.40;6.70;;;;;;;18.35;100.00;156077.19;4908713;29;20999;-82
2023/07/19 03:21:33;;;;;;;9.07;5.50;;;;;;;18.35;100.00;156077.19;4911433;29;20963;-82
2023/07/19 03:24:18;;;;;;;8.13;6.00;;;;;;;18.30;100.00;156065.44;4903202;29;20444;-82
2023/07/19 03:27:05;;;;;;;6.30;5.23;;;;;;;18.30;100.00;156064.13;4888029;29;20805;-82
2023/07/19 03:29:50;;;;;;;6.00;5.40;;;;;;;18.30;100.00;156064.13;4906385;29;20883;-82
2023/07/19 03:32:35;;;;;;;5.80;5.20;;;;;;;18.23;100.00;156048.53;4896604;29;21053;-82
2023/07/19 03:35:22;;;;;;;7.07;6.00;;;;;;;18.18;100.00;156035.50;4907902;29;20448;-82
2023/07/19 03:38:07;;;;;;;7.93;5.90;;;;;;;18.15;100.00;156027.69;4904595;29;20469;-82
2023/07/19 03:40:53;;;;;;;7.70;5.90;;;;;;;18.17;100.00;156032.88;4904567;29;20479;-82
2023/07/19 03:43:38;;;;;;;6.20;5.60;;;;;;;18.15;100.00;156027.69;4900518;29;20562;-82
2023/07/19 03:46:24;;;;;;;6.03;5.53;;;;;;;18.13;100.00;156022.50;4907002;29;20472;-79
2023/07/19 03:49:09;;;;;;;5.03;4.40;;;;;;;18.13;100.00;156022.50;4908163;29;20417;-78
2023/07/19 03:51:56;;;;;;;5.90;5.13;;;;;;;18.12;100.00;156019.88;4896673;29;20525;-78
2023/07/19 03:54:53;;;;;;;5.60;4.60;;;;;;;18.15;100.00;156027.69;4907268;29;20452;-78
2023/07/19 03:57:38;;;;;;;5.77;4.90;;;;;;;18.16;100.00;156029.00;4904478;29;20441;-78
2023/07/19 04:00:25;;;;;;;6.40;5.10;;;;;;;18.10;100.00;156014.66;4904060;29;20464;-78
2023/07/19 04:03:10;;;;;;;6.20;5.20;;;;;;;18.10;100.00;156013.34;4904252;29;20984;-79
2023/07/19 04:05:57;;;;;;;8.60;4.63;;;;;;;18.11;100.00;156015.94;4895297;29;20637;-79
2023/07/19 04:08:44;;;;;;;6.80;4.73;;;;;;;18.12;100.00;156019.88;4910914;29;20424;-78
2023/07/19 04:11:29;;;;;;;5.97;5.03;;;;;;;18.12;100.00;156018.56;4900883;29;20460;-78
2023/07/19 04:14:46;;;;;;;5.87;5.30;;;;;;;18.14;100.00;156025.06;4911552;29;20465;-78
2023/07/19 04:17:31;;;;;;;6.53;4.83;;;;;;;18.17;100.00;156032.88;4917562;29;20440;-78
2023/07/19 04:20:16;;;;;;;4.90;4.03;;;;;;;18.23;100.00;156048.53;4906354;29;20476;-78
2023/07/19 04:23:02;;;;;;;5.97;4.80;;;;;;;18.30;100.00;156065.44;4914554;29;20437;-78
2023/07/19 04:25:49;;;;;;;7.40;4.90;;;;;;;18.32;100.00;156069.38;4911824;29;20966;-78
2023/07/19 04:28:34;;;;;;;6.93;4.77;;;;;;;18.37;100.00;156082.38;4912291;29;20444;-77
2023/07/19 04:31:20;;;;;;;7.13;5.10;;;;;;;18.43;98.84;156097.97;4906737;29;20476;-79
2023/07/19 04:34:05;;;;;;;8.00;5.00;;;;;;;18.59;99.30;156139.72;4910324;29;20456;-78
2023/07/19 04:36:50;;;;;;;5.43;4.73;;;;;;;18.75;96.92;156182.72;4911355;29;20460;-78
2023/07/19 04:39:38;;;;;;;5.43;4.83;;;;;;;18.91;96.48;156221.78;4910052;29;20487;-77
2023/07/19 04:42:29;;;;;;;5.40;4.53;;;;;;;18.97;95.60;156238.75;4912393;29;20456;-78
2023/07/19 04:45:15;;;;;;;4.90;4.33;;;;;;;19.07;96.25;156264.81;4898779;29;20443;-78
2023/07/19 04:48:03;;;;;;;6.43;4.40;;;;;;;19.19;95.71;156294.81;4914522;29;20868;-78
2023/07/19 04:50:52;;;;;;;5.23;4.27;;;;;;;19.35;95.08;156336.50;4906524;29;20493;-78
2023/07/19 04:53:37;;;;;;;4.73;4.30;;;;;;;19.52;95.33;156379.53;4913180;29;20441;-79
2023/07/19 04:56:23;;;;;;;5.80;4.50;;;;;;;19.69;92.56;156425.19;4898418;29;20589;-79
2023/07/19 04:59:10;;;;;;;5.70;4.30;;;;;;;19.94;92.38;156490.38;4914239;29;20538;-79
2023/07/19 05:01:58;;;;;;;6.93;4.83;;;;;;;20.19;93.46;156552.97;4916357;29;20488;-80
2023/07/19 05:04:43;;;;;;;6.37;4.37;;;;;;;20.35;92.43;156594.75;4917716;29;20455;-80
2023/07/19 05:07:28;;;;;;;5.63;5.00;;;;;;;20.53;91.69;156643.03;4905123;29;20491;-80
2023/07/19 05:10:17;;;;;;;6.67;4.20;;;;;;;20.70;89.74;156684.78;4904700;29;20524;-80
2023/07/19 05:13:02;;;;;;;6.53;4.50;;;;;;;20.89;90.02;156734.38;4903438;29;20572;-80
2023/07/19 05:15:52;;;;;;;4.87;4.30;;;;;;;20.99;89.82;156760.44;4917510;29;20452;-80
2023/07/19 05:18:39;;;;;;;8.20;5.47;;;;;;;21.14;89.96;156800.94;4919118;29;20535;-80
2023/07/19 05:21:24;;;;;;;6.23;4.60;;;;;;;21.29;89.29;156838.78;4908135;29;20551;-81
2023/07/19 05:24:11;;;;;;;9.33;4.93;;;;;;;21.50;87.93;156893.59;4918378;29;20460;-81
2023/07/19 05:26:57;;;;;;;4.87;4.20;;;;;;;21.61;88.44;156922.31;4912895;29;20467;-81
2023/07/19 05:29:43;;;;;;;6.77;5.33;;;;;;;21.76;88.19;156961.47;4915446;29;20480;-81
2023/07/19 05:32:30;;;;;;;5.80;4.97;;;;;;;21.92;87.66;157000.72;4915340;29;20463;-81
2023/07/19 05:35:15;;;;;;;5.90;5.13;;;;;;;21.97;87.38;157015.09;4920683;29;20541;-81
2023/07/19 05:38:00;;;;;;;5.50;5.00;;;;;;;22.10;86.97;157047.72;4919000;29;20461;-82
2023/07/19 05:40:46;;;;;;;5.20;4.70;;;;;;;22.12;85.53;157052.94;4916707;29;20480;-82
2023/07/19 05:43:32;;;;;;;6.40;4.63;;;;;;;22.22;86.47;157079.06;4919815;29;20450;-82
2023/07/19 05:46:18;;;;;;;6.20;5.60;;;;;;;22.32;84.95;157105.16;4916132;29;20615;-81
2023/07/19 05:49:05;;;;;;;7.57;5.23;;;;;;;22.46;84.82;157141.75;4891275;29;20449;-81
2023/07/19 05:51:51;;;;;;;5.43;4.93;;;;;;;22.57;85.70;157169.19;4918115;29;20489;-81
2023/07/19 05:54:36;;;;;;;7.40;6.30;;;;;;;22.69;86.40;157200.63;4916981;29;20456;-81
2023/07/19 05:57:21;;;;;;;7.77;5.67;;;;;;;22.87;84.55;157248.97;4918722;29;20460;-82
2023/07/19 06:00:13;;;;;;;6.90;6.20;;;;;;;23.01;84.63;157284.19;4915234;29;20552;-82
2023/07/19 06:02:59;;;;;;;7.33;5.50;;;;;;;23.08;85.21;157301.22;4914472;29;20518;-82
2023/07/19 06:05:45;;;;;;;6.47;5.10;;;;;;;23.22;83.28;157337.81;4919582;29;20439;-82
2023/07/19 06:08:31;;;;;;;7.23;5.50;;;;;;;23.30;84.07;157358.72;4916806;29;20544;-82
2023/07/19 06:11:16;;;;;;;9.47;5.50;;;;;;;23.48;81.82;157405.81;4916363;29;21812;-82
2023/07/19 06:14:02;;;;;;;6.20;5.13;;;;;;;23.48;82.82;157407.09;4920299;29;20448;-82
2023/07/19 06:16:47;;;;;;;10.00;5.33;;;;;;;23.61;78.94;157439.81;4909717;29;21059;-82
2023/07/19 06:19:32;;;;;;;6.67;5.20;;;;;;;23.96;80.27;157531.28;4907733;29;20468;-82
2023/07/19 06:22:19;;;;;;;6.27;5.00;;;;;;;24.22;77.38;157598.06;4904000;29;20967;-82
2023/07/19 06:25:05;;;;;;;8.17;5.47;;;;;;;24.42;76.09;157649.03;4907240;29;20515;-82
2023/07/19 06:27:50;;;;;;;11.13;5.80;;;;;;;24.71;74.57;157724.91;4916726;29;20472;-82
2023/07/19 06:30:36;;;;;;;7.23;5.30;;;;;;;24.79;72.62;157745.88;4919633;29;20452;-82
2023/07/19 06:33:21;;;;;;;7.13;6.43;;;;;;;24.96;73.41;157790.41;4904486;29;20805;-82
2023/07/19 06:36:07;;;;;;;7.23;5.90;;;;;;;25.06;76.91;157816.56;4901457;29;20471;-83
2023/07/19 06:38:53;;;;;;;9.03;5.60;;;;;;;25.22;76.21;157858.44;4918644;29;20532;-82
2023/07/19 06:41:39;;;;;;;7.17;5.77;;;;;;;25.31;74.46;157881.97;4914628;29;20512;-81
2023/07/19 06:44:24;;;;;;;9.93;5.30;;;;;;;25.27;73.96;157871.53;4904414;29;20531;-81
2023/07/19 06:47:10;;;;;;;7.23;5.77;;;;;;;25.29;72.98;157876.75;4919986;29;20476;-81
2023/07/19 06:49:56;;;;;;;7.87;6.20;;;;;;;25.44;71.86;157916.00;4919004;29;20473;-81
2023/07/19 06:52:41;;;;;;;6.87;5.47;;;;;;;25.56;69.29;157944.84;4920328;29;20538;-79
2023/07/19 06:55:28;;;;;;;6.37;5.70;;;;;;;25.71;72.94;157984.09;4920587;29;20491;-78
2023/07/19 06:58:13;;;;;;;9.23;5.67;;;;;;;25.73;68.52;157990.69;4921204;29;20996;-78
2023/07/19 07:00:58;;;;;;;5.83;4.87;;;;;;;25.96;67.00;158050.91;4918196;29;20659;-78
2023/07/19 07:03:44;;;;;;;5.27;4.50;;;;;;;26.08;69.31;158079.72;4920091;29;20443;-78
2023/07/19 07:06:29;;;;;;;7.13;4.80;;;;;;;26.31;67.11;158141.31;4918353;29;20672;-78
2023/07/19 07:09:15;;;;;;;5.00;4.50;;;;;;;26.37;67.91;158156.97;4919608;29;20793;-79
2023/07/19 07:12:01;;;;;;;6.80;5.03;;;;;;;26.57;63.15;158208.06;4919225;29;20627;-78
2023/07/19 07:14:46;;;;;;;7.03;5.13;;;;;;;26.74;62.01;158251.31;4919680;29;20900;-79
2023/07/19 07:17:32;;;;;;;4.57;4.17;;;;;;;26.94;65.74;158303.75;4917999;29;20617;-78
2023/07/19 07:20:18;;;;;;;5.20;4.40;;;;;;;27.06;61.38;158335.16;4918310;29;20487;-79
2023/07/19 07:23:03;;;;;;;5.03;4.53;;;;;;;27.33;65.57;158405.94;4918860;29;20459;-79
2023/07/19 07:25:52;;;;;;;5.53;4.63;;;;;;;27.54;67.18;158459.69;4918777;29;20508;-79
2023/07/19 07:28:38;;;;;;;7.40;4.70;;;;;;;27.56;58.86;158466.25;4920481;29;20444;-79
2023/07/19 07:31:24;;;;;;;6.93;4.00;;;;;;;27.74;64.81;158513.47;4917580;29;20960;-79
2023/07/19 07:34:10;;;;;;;8.20;3.87;;;;;;;27.84;62.03;158538.38;4918296;29;20817;-79
2023/07/19 07:36:55;;;;;;;4.13;3.70;;;;;;;28.11;60.17;158609.22;4919478;29;20728;-79
2023/07/19 07:39:40;;;;;;;4.40;3.30;;;;;;;28.08;59.19;158601.34;4919456;29;20471;-79
2023/07/19 07:42:26;;;;;;;4.40;3.40;;;;;;;28.32;54.21;158662.97;4922404;29;20966;-79
2023/07/19 07:45:12;;;;;;;4.87;3.00;;;;;;;28.43;55.10;158690.50;4923440;29;20455;-79
2023/07/19 07:47:57;;;;;;;4.50;3.57;;;;;;;28.49;58.25;158707.53;4922340;29;20475;-79
2023/07/19 07:50:43;;;;;;;6.10;3.63;;;;;;;28.61;48.65;158739.03;4921154;29;20600;-79
2023/07/19 07:53:28;;;;;;;4.20;3.47;;;;;;;28.90;45.45;158815.13;4922742;29;20980;-79
2023/07/19 07:56:14;;;;;;;4.33;2.90;;;;;;;28.91;52.09;158817.72;4921908;29;20457;-79
2023/07/19 07:58:59;;;;;;;3.53;3.23;;;;;;;29.15;52.75;158878.13;4923170;29;20447;-79
2023/07/19 08:01:45;;;;;;;3.13;2.50;;;;;;;29.27;50.59;158910.94;4919659;29;21014;-79
2023/07/19 08:04:31;;;;;;;4.40;3.10;;;;;;;29.48;45.02;158964.72;4922503;29;20452;-78
2023/07/19 08:07:16;;;;;;;4.50;2.23;;;;;;;29.64;44.65;159006.72;4919687;29;20855;-79
2023/07/19 08:10:01;;;;;;;2.47;1.70;;;;;;;29.85;46.65;159061.91;4921991;29;20452;-79
2023/07/19 08:12:47;;;;;;;2.70;2.50;;;;;;;30.04;45.33;159110.44;4922459;29;20470;-79
2023/07/19 08:15:32;;;;;;;3.40;2.30;;;;;;;30.04;44.36;159111.78;4921583;29;21121;-79
2023/07/19 08:18:19;;;;;;;2.90;2.00;;;;;;;30.30;44.63;159177.38;4921913;29;20856;-79
2023/07/19 08:21:06;;;;;;;2.40;2.17;;;;;;;30.27;41.94;159169.50;4921365;29;20538;-79
2023/07/19 08:23:55;;;;;;;2.60;2.40;;;;;;;30.35;40.92;159190.50;4921441;29;20577;-79
2023/07/19 08:26:40;;;;;;;5.00;2.10;;;;;;;30.39;40.93;159201.09;4923159;29;20849;-79
2023/07/19 08:29:27;;;;;;;3.10;1.97;;;;;;;30.45;41.72;159218.13;4922867;29;20595;-79
2023/07/19 08:32:13;;;;;;;3.53;2.20;;;;;;;30.37;40.14;159197.13;4920858;29;20548;-79
2023/07/19 08:35:00;;;;;;;3.43;2.10;;;;;;;30.47;42.27;159222.09;4921167;29;20447;-79
2023/07/19 08:37:46;;;;;;;2.93;2.20;;;;;;;30.40;43.07;159205.00;4907605;29;20948;-79
2023/07/19 08:40:32;;;;;;;2.97;2.27;;;;;;;30.43;41.26;159211.56;4922005;29;20597;-79
2023/07/19 08:43:18;;;;;;;2.73;1.77;;;;;;;30.40;41.18;159205.00;4922946;29;20441;-79
2023/07/19 08:46:03;;;;;;;2.13;1.57;;;;;;;30.43;42.84;159212.88;4921860;29;20947;-79
2023/07/19 08:48:48;;;;;;;3.03;2.13;;;;;;;30.51;41.30;159233.91;4922527;29;20846;-79
2023/07/19 08:51:39;;;;;;;5.00;2.53;;;;;;;30.57;37.71;159248.34;4919563;29;20545;-79
2023/07/19 08:54:24;;;;;;;2.10;1.90;;;;;;;30.64;40.39;159268.03;4906743;29;20531;-79
2023/07/19 08:57:09;;;;;;;2.37;1.90;;;;;;;30.64;38.70;159266.72;4920643;29;20925;-79
2023/07/19 08:59:55;;;;;;;3.03;2.10;;;;;;;30.82;39.01;159312.69;4919958;29;21004;-79
2023/07/19 09:02:40;;;;;;;2.30;2.00;;;;;;;30.93;35.46;159341.59;4921010;29;20989;-78
2023/07/19 09:05:28;;;;;;;2.60;2.20;;;;;;;30.75;37.85;159296.94;4921092;29;20451;-79
2023/07/19 09:08:15;;;;;;;2.33;1.80;;;;;;;30.64;36.12;159266.72;4920373;29;20484;-79
2023/07/19 09:11:00;;;;;;;4.23;2.20;;;;;;;30.57;38.01;159249.66;4920383;29;20601;-79
2023/07/19 09:13:52;;;;;;;2.23;2.03;;;;;;;30.50;35.43;159229.97;4920887;29;20535;-79
2023/07/19 09:16:37;;;;;;;2.17;1.80;;;;;;;30.46;32.82;159219.44;4921510;29;21126;-79
2023/07/19 09:19:22;;;;;;;2.67;2.00;;;;;;;30.43;35.29;159212.88;4918598;29;20441;-79
2023/07/19 09:22:09;;;;;;;2.90;2.10;;;;;;;30.27;36.41;159170.81;4922035;29;20448;-79
2023/07/19 09:25:01;;;;;;;3.87;1.90;;;;;;;30.19;37.35;159149.81;4920649;29;20439;-79
2023/07/19 09:27:46;;;;;;;2.83;2.00;;;;;;;30.32;38.36;159183.94;4921047;29;20459;-79
2023/07/19 09:30:31;;;;;;;3.83;2.43;;;;;;;30.36;35.90;159194.53;4920982;29;20448;-79
2023/07/19 09:33:17;;;;;;;1.90;1.60;;;;;;;30.46;32.17;159220.78;4923010;29;20798;-79
2023/07/19 09:36:03;;;;;;;3.10;2.20;;;;;;;30.34;37.58;159187.91;4920212;29;20464;-79
2023/07/19 09:38:48;;;;;;;2.23;2.03;;;;;;;30.22;36.00;159156.38;4920084;29;20963;-79
2023/07/19 09:41:35;;;;;;;4.10;2.10;;;;;;;30.33;38.68;159185.28;4919396;29;20488;-79
2023/07/19 09:44:22;;;;;;;2.20;2.00;;;;;;;30.30;35.42;159177.38;4921758;29;20495;-79
2023/07/19 09:47:08;;;;;;;2.33;1.87;;;;;;;30.10;30.57;159126.22;4921057;29;20468;-79
2023/07/19 09:49:54;;;;;;;3.57;2.03;;;;;;;29.63;32.04;159004.09;4920864;29;20586;-79
2023/07/19 09:52:40;;;;;;;2.77;1.93;;;;;;;29.39;32.06;158941.09;4922133;29;20929;-79
2023/07/19 09:55:25;;;;;;;4.20;1.70;;;;;;;29.30;36.78;158917.50;4905678;29;21077;-79
2023/07/19 09:58:13;;;;;;;1.90;1.70;;;;;;;29.45;36.38;158958.16;4920295;29;20921;-78
2023/07/19 10:00:59;;;;;;;2.40;2.07;;;;;;;29.72;38.70;159026.41;4919245;29;20483;-79
2023/07/19 10:03:44;;;;;;;3.37;2.20;;;;;;;30.07;38.00;159118.34;4919487;29;20467;-78
2023/07/19 10:06:30;;;;;;;8.37;2.30;;;;;;;30.29;33.15;159174.78;4920509;29;20530;-79
2023/07/19 10:09:31;;;;;;;2.77;2.47;;;;;;;30.31;35.17;159181.34;4919771;29;20452;-79
2023/07/19 10:12:24;;;;;;;4.00;2.10;;;;;;;30.27;35.52;159169.50;4920858;29;20844;-79
2023/07/19 10:15:14;;;;;;;2.57;2.37;;;;;;;30.09;33.83;159124.91;4919079;29;20590;-79
2023/07/19 10:18:00;;;;;;;4.07;2.07;;;;;;;30.01;38.48;159103.91;4918970;29;20535;-79
2023/07/19 10:21:00;;;;;;;3.93;2.13;;;;;;;30.04;41.30;159111.78;4920177;29;21128;-79
2023/07/19 10:23:46;;;;;;;3.73;2.40;;;;;;;30.23;40.38;159159.03;4904513;29;20452;-79
2023/07/19 10:26:31;;;;;;;2.73;2.13;;;;;;;30.40;40.73;159205.00;4920467;29;20475;-79
2023/07/19 10:29:17;;;;;;;3.33;2.60;;;;;;;30.41;36.71;159206.31;4919664;29;20480;-79
2023/07/19 10:32:05;;;;;;;4.17;2.10;;;;;;;30.54;37.48;159240.47;4919443;29;20465;-79
2023/07/19 10:34:51;;;;;;;4.03;2.60;;;;;;;30.69;39.01;159279.84;4919605;29;20951;-79
2023/07/19 10:37:36;;;;;;;3.30;2.20;;;;;;;30.80;36.89;159308.72;4920284;29;20513;-79
2023/07/19 10:40:21;;;;;;;3.30;2.30;;;;;;;30.88;40.29;159328.41;4915129;29;20526;-79
2023/07/19 10:43:06;;;;;;;4.60;2.30;;;;;;;30.80;36.79;159308.72;4921030;29;20576;-79
2023/07/19 10:45:52;;;;;;;2.77;2.27;;;;;;;30.68;39.20;159278.56;4919775;29;20460;-79
2023/07/19 10:48:39;;;;;;;2.47;2.10;;;;;;;30.72;38.20;159289.03;4919337;29;20467;-79
2023/07/19 10:51:24;;;;;;;5.40;2.47;;;;;;;30.76;36.13;159298.25;4918296;29;20467;-79
2023/07/19 10:54:10;;;;;;;3.67;2.33;;;;;;;30.73;35.43;159291.69;4920456;29;20538;-79
2023/07/19 10:56:57;;;;;;;3.07;2.77;;;;;;;30.71;34.44;159286.41;4918959;29;20452;-79
2023/07/19 10:59:49;;;;;;;4.37;2.43;;;;;;;30.67;34.11;159274.59;4917288;29;20452;-79
2023/07/19 11:02:34;;;;;;;2.90;2.27;;;;;;;30.69;39.80;159279.84;4920647;29;20448;-79
2023/07/19 11:05:21;;;;;;;3.07;2.87;;;;;;;30.74;40.70;159294.28;4919005;29;20583;-79
2023/07/19 11:08:06;;;;;;;2.57;2.23;;;;;;;30.74;39.20;159292.97;4917715;29;20483;-79
2023/07/19 11:10:52;;;;;;;4.00;2.47;;;;;;;30.79;38.23;159304.81;4918533;29;20508;-79
2023/07/19 11:13:38;;;;;;;3.73;2.13;;;;;;;30.80;36.39;159308.72;4918582;29;20440;-79
2023/07/19 11:16:27;;;;;;;4.73;3.07;;;;;;;30.81;36.40;159310.06;4917761;29;20456;-79
2023/07/19 11:19:12;;;;;;;4.70;2.10;;;;;;;30.54;35.77;159240.47;4919600;29;20452;-79
2023/07/19 11:21:58;;;;;;;4.27;2.70;;;;;;;30.42;37.37;159210.25;4919985;29;20539;-79
2023/07/19 11:24:44;;;;;;;4.03;2.43;;;;;;;30.48;39.88;159224.69;4919262;29;20491;-79
2023/07/19 11:27:36;;;;;;;3.00;2.27;;;;;;;30.45;39.45;159218.13;4918963;29;20457;-78
2023/07/19 11:30:23;;;;;;;3.10;2.80;;;;;;;30.44;39.41;159215.53;4917834;29;20455;-79
2023/07/19 11:33:09;;;;;;;3.53;2.80;;;;;;;30.48;36.67;159224.69;4906052;29;20962;-78
2023/07/19 11:35:54;;;;;;;2.80;2.40;;;;;;;30.50;37.06;159231.25;4916934;29;20459;-79
2023/07/19 11:38:42;;;;;;;3.27;2.30;;;;;;;30.48;36.30;159224.69;4916771;29;20436;-79
2023/07/19 11:41:30;;;;;;;2.97;2.67;;;;;;;30.33;37.42;159185.28;4918626;29;20587;-79
2023/07/19 11:44:16;;;;;;;2.67;2.47;;;;;;;30.23;36.65;159159.03;4919809;29;20585;-79
2023/07/19 11:47:02;;;;;;;5.10;2.27;;;;;;;30.08;39.75;159122.25;4917787;29;20577;-82
2023/07/19 11:49:47;;;;;;;8.43;2.50;;;;;;;30.05;37.01;159114.38;4904490;29;20440;-82
2023/07/19 11:52:32;;;;;;;3.00;2.53;;;;;;;30.12;40.77;159132.78;4919943;29;20456;-82
2023/07/19 11:55:20;;;;;;;4.97;2.83;;;;;;;30.13;36.15;159135.38;4917949;29;20946;-83
2023/07/19 11:58:05;;;;;;;4.43;2.40;;;;;;;30.21;41.00;159155.06;4918974;29;20823;-83
2023/07/19 12:00:51;;;;;;;4.10;2.77;;;;;;;30.24;39.46;159161.63;4918386;29;20870;-82
2023/07/19 12:03:36;;;;;;;8.20;2.53;;;;;;;30.30;39.57;159177.38;4918762;29;20621;-83
2023/07/19 12:06:21;;;;;;;3.53;2.90;;;;;;;30.24;39.54;159162.94;4918837;29;20603;-80
2023/07/19 12:09:09;;;;;;;7.10;2.97;;;;;;;30.16;37.91;159141.94;4893461;29;20975;-81
2023/07/19 12:11:56;;;;;;;3.83;2.60;;;;;;;30.13;37.48;159135.38;4920549;29;20447;-82
2023/07/19 12:14:41;;;;;;;6.90;2.97;;;;;;;30.06;36.22;159117.00;4918860;29;20460;-82
2023/07/19 12:17:26;;;;;;;4.67;2.97;;;;;;;29.70;36.97;159021.16;4917154;29;20593;-83
2023/07/19 12:20:12;;;;;;;3.93;2.57;;;;;;;29.52;39.62;158976.53;4916261;29;20516;-82
2023/07/19 12:22:57;;;;;;;3.87;2.77;;;;;;;29.60;40.23;158994.94;4920849;29;20595;-82
2023/07/19 12:25:43;;;;;;;2.67;2.47;;;;;;;29.74;42.54;159032.97;4916477;29;20896;-82
2023/07/19 12:28:29;;;;;;;4.63;2.90;;;;;;;29.86;40.28;159064.53;4916466;29;20510;-83
2023/07/19 12:31:16;;;;;;;3.43;3.00;;;;;;;29.97;38.47;159093.38;4920551;29;20589;-82
2023/07/19 12:34:28;;;;;;;7.40;2.90;;;;;;;30.09;40.30;159123.56;4910763;29;20991;-83
2023/07/19 12:37:37;;;;;;;;;;;;;;;;;;;;;
2023/07/19 12:41:07;;;;;;;3.57;3.10;;;;;;;30.04;37.52;159111.78;4934698;29;21342;-83
2023/07/19 12:44:21;;;;;;;4.00;3.00;;;;;;;30.18;41.74;159148.50;4926752;29;20518;-82
2023/07/19 12:47:27;;;;;;;3.30;2.83;;;;;;;30.30;40.17;159177.38;4937864;29;20458;-83
2023/07/19 12:50:12;;;;;;;6.10;3.40;;;;;;;30.41;40.93;159206.31;4935789;29;20473;-82
2023/07/19 12:53:04;;;;;;;3.53;3.20;;;;;;;30.50;38.29;159229.97;4936836;29;20534;-83
2023/07/19 12:55:53;;;;;;;5.70;3.50;;;;;;;30.51;40.73;159232.56;4882835;29;20457;-83